Time;durP1;ratioP1;P1;durP2;ratioP2;P2;SDS_P1;SDS_P2;PMS_P1;PMS_P2;Temp;Humidity;BMP_temperature;BMP_pressure;BME280_temperature;BME280_humidity;BME280_pressure;Samples;Min_cycle;Max_cycle;Signal;HPM_P1;HPM_P2
2021/11/07 00:04:47;;;;;;;9.70;7.47;;;11.30;85.70;;;;;;5098122;28;20230;-85
2021/11/07 00:07:56;;;;;;;9.23;6.57;;;11.20;85.70;;;;;;5096875;28;20576;-85
2021/11/07 00:10:12;;;;;;;10.80;6.75;;;11.20;85.90;;;;;;5095051;28;20274;-85
2021/11/07 00:12:43;;;;;;;8.10;6.70;;;11.30;86.10;;;;;;5103407;28;20211;-85
2021/11/07 00:15:11;;;;;;;10.73;8.57;;;11.20;86.00;;;;;;5117428;28;20187;-85
2021/11/07 00:17:38;;;;;;;9.65;7.93;;;11.10;86.30;;;;;;5116720;28;20206;-85
2021/11/07 00:25:30;;;;;;;14.50;9.10;;;11.20;86.90;;;;;;5112864;28;20370;-85
2021/11/07 00:27:59;;;;;;;10.68;9.18;;;11.20;86.90;;;;;;5081157;28;20210;-85
2021/11/07 00:30:52;;;;;;;14.05;9.02;;;11.20;87.20;;;;;;5097032;28;20397;-84
2021/11/07 00:35:57;;;;;;;11.17;8.90;;;11.10;87.70;;;;;;5096500;28;20798;-84
2021/11/07 00:38:31;;;;;;;16.10;9.52;;;11.20;87.50;;;;;;5096421;28;20611;-84
2021/11/07 00:41:13;;;;;;;12.32;8.82;;;11.30;87.50;;;;;;5096554;28;20723;-83
2021/11/07 00:43:58;;;;;;;11.05;9.88;;;11.20;87.40;;;;;;5096132;28;20199;-84
2021/11/07 00:49:09;;;;;;;13.60;10.10;;;11.10;87.70;;;;;;5097546;28;20525;-84
2021/11/07 00:54:29;;;;;;;14.32;9.93;;;11.10;88.00;;;;;;5095775;28;20233;-84
2021/11/07 00:56:58;;;;;;;13.70;10.15;;;11.10;88.00;;;;;;5095056;28;20218;-85
2021/11/07 01:02:00;;;;;;;20.65;10.80;;;11.10;88.20;;;;;;5096304;28;20160;-85
2021/11/07 01:04:29;;;;;;;12.75;9.55;;;11.10;88.20;;;;;;5094379;28;20191;-85
2021/11/07 01:06:55;;;;;;;12.45;10.13;;;11.20;88.10;;;;;;5096376;28;20520;-85
2021/11/07 01:09:20;;;;;;;15.83;11.53;;;11.20;88.10;;;;;;5095117;28;20217;-85
2021/11/07 01:11:48;;;;;;;13.10;10.53;;;11.30;87.90;;;;;;5095980;28;20485;-85
2021/11/07 01:14:14;;;;;;;13.40;9.48;;;11.20;87.50;;;;;;5115493;28;20455;-85
2021/11/07 01:16:41;;;;;;;12.68;9.98;;;11.30;87.50;;;;;;5115998;28;20203;-85
2021/11/07 01:19:07;;;;;;;20.42;11.70;;;11.20;87.50;;;;;;5114783;28;20175;-85
2021/11/07 01:21:42;;;;;;;15.07;10.40;;;11.20;87.70;;;;;;5115035;28;20223;-85
2021/11/07 01:24:22;;;;;;;16.45;8.85;;;11.20;87.80;;;;;;5113443;28;20201;-85
2021/11/07 01:26:52;;;;;;;14.48;10.50;;;11.20;87.90;;;;;;5098394;28;20260;-85
2021/11/07 01:29:24;;;;;;;12.57;9.30;;;11.30;87.90;;;;;;5094077;28;20179;-85
2021/11/07 01:31:51;;;;;;;11.57;9.43;;;11.40;87.70;;;;;;5094508;28;20764;-85
2021/11/07 01:37:13;;;;;;;16.98;10.82;;;11.40;87.50;;;;;;5076938;28;20250;-84
2021/11/07 01:39:51;;;;;;;13.32;9.85;;;11.60;87.30;;;;;;5097853;28;20732;-84
2021/11/07 01:42:35;;;;;;;11.95;9.98;;;11.60;87.00;;;;;;5096161;28;20175;-84
2021/11/07 01:45:21;;;;;;;12.43;10.23;;;11.40;87.00;;;;;;5099026;28;20195;-85
2021/11/07 01:47:51;;;;;;;12.48;10.13;;;11.40;87.20;;;;;;5097178;28;20233;-85
2021/11/07 01:50:17;;;;;;;12.52;10.43;;;11.40;87.20;;;;;;5096789;28;20183;-85
2021/11/07 01:52:44;;;;;;;12.90;8.45;;;11.40;88.10;;;;;;5097941;28;20241;-85
2021/11/07 01:55:16;;;;;;;13.75;9.70;;;11.50;87.50;;;;;;5094724;28;20195;-85
2021/11/07 01:57:42;;;;;;;14.65;10.20;;;11.60;87.30;;;;;;5096142;28;20168;-85
2021/11/07 02:00:20;;;;;;;19.83;11.43;;;11.50;87.10;;;;;;5095668;28;20217;-85
2021/11/07 02:02:48;;;;;;;13.00;10.80;;;11.70;87.20;;;;;;5104757;28;20262;-85
2021/11/07 02:05:14;;;;;;;12.57;10.38;;;11.60;87.00;;;;;;5114071;28;20191;-85
2021/11/07 02:07:39;;;;;;;12.40;8.33;;;11.50;87.30;;;;;;5114843;28;20182;-85
2021/11/07 02:10:09;;;;;;;11.00;9.77;;;11.60;87.20;;;;;;5116066;28;20428;-84
2021/11/07 02:12:35;;;;;;;10.98;9.10;;;11.60;87.10;;;;;;5110426;28;20551;-84
2021/11/07 02:15:05;;;;;;;14.88;9.50;;;11.80;87.00;;;;;;5097623;28;20200;-84
2021/11/07 02:17:31;;;;;;;12.32;9.45;;;11.70;86.80;;;;;;5097185;28;20635;-84
2021/11/07 02:19:59;;;;;;;13.93;10.77;;;11.70;86.90;;;;;;5097253;28;20286;-85
2021/11/07 02:22:25;;;;;;;18.17;10.45;;;11.70;87.10;;;;;;5094925;28;20172;-85
2021/11/07 02:24:51;;;;;;;12.15;10.00;;;11.80;86.90;;;;;;5094034;28;20222;-85
2021/11/07 02:27:17;;;;;;;11.13;9.57;;;11.80;86.80;;;;;;5094584;28;20638;-85
2021/11/07 02:29:43;;;;;;;30.33;10.17;;;11.80;86.70;;;;;;5094986;28;20179;-84
2021/11/07 02:32:08;;;;;;;10.77;9.53;;;11.80;86.80;;;;;;5096427;28;20182;-85
2021/11/07 02:34:35;;;;;;;12.53;8.80;;;11.80;86.70;;;;;;5095714;28;20191;-85
2021/11/07 02:37:01;;;;;;;10.93;9.05;;;11.80;86.70;;;;;;5102519;28;20417;-84
2021/11/07 02:39:27;;;;;;;17.67;10.32;;;11.90;86.60;;;;;;5100552;28;20232;-85
2021/11/07 02:41:53;;;;;;;18.73;9.77;;;11.80;86.60;;;;;;5100304;28;20263;-85
2021/11/07 02:44:34;;;;;;;15.90;9.87;;;12.00;86.70;;;;;;5102096;28;20245;-85
2021/11/07 02:47:05;;;;;;;12.38;8.77;;;12.00;86.30;;;;;;5102278;28;20209;-85
2021/11/07 02:49:32;;;;;;;12.73;10.73;;;12.00;86.40;;;;;;5104487;28;20175;-84
2021/11/07 02:51:59;;;;;;;11.90;9.43;;;12.10;86.20;;;;;;5107416;28;20205;-85
2021/11/07 02:54:26;;;;;;;11.75;9.88;;;12.10;86.10;;;;;;5107865;28;20192;-84
2021/11/07 02:56:53;;;;;;;13.10;9.88;;;12.20;86.00;;;;;;5087588;28;20176;-85
2021/11/07 02:59:23;;;;;;;12.07;8.80;;;12.00;85.80;;;;;;5116054;28;20207;-84
2021/11/07 03:01:49;;;;;;;14.50;9.70;;;12.00;86.00;;;;;;5108599;28;20183;-84
2021/11/07 03:04:15;;;;;;;16.10;10.30;;;12.00;86.30;;;;;;5101858;28;20218;-84
2021/11/07 03:06:43;;;;;;;15.80;9.60;;;11.90;86.50;;;;;;5103161;28;20209;-84
2021/11/07 03:09:16;;;;;;;14.13;9.55;;;11.80;86.70;;;;;;5102080;28;20425;-84
2021/11/07 03:11:43;;;;;;;14.18;8.75;;;11.90;87.20;;;;;;5103656;28;20168;-84
2021/11/07 03:14:14;;;;;;;12.70;9.60;;;11.80;87.20;;;;;;5126012;28;20240;-83
2021/11/07 03:16:40;;;;;;;20.27;9.10;;;11.90;87.40;;;;;;5120252;28;20622;-83
2021/11/07 03:19:06;;;;;;;16.35;11.10;;;11.80;87.40;;;;;;5119634;28;20179;-84
2021/11/07 03:21:32;;;;;;;15.70;9.77;;;11.90;87.60;;;;;;5118333;28;20693;-84
2021/11/07 03:23:58;;;;;;;11.73;10.40;;;12.00;87.50;;;;;;5116992;28;20234;-84
2021/11/07 03:26:26;;;;;;;16.33;10.95;;;12.00;87.40;;;;;;5120198;28;20200;-84
2021/11/07 03:28:59;;;;;;;14.98;10.10;;;11.90;87.50;;;;;;5120931;28;20175;-84
2021/11/07 03:33:55;;;;;;;12.90;10.53;;;12.00;87.50;;;;;;5129308;28;20537;-84
2021/11/07 03:36:21;;;;;;;17.67;11.38;;;12.00;87.60;;;;;;5120257;28;20175;-84
2021/11/07 03:38:50;;;;;;;15.75;11.70;;;12.00;87.60;;;;;;5119907;28;20211;-84
2021/11/07 03:41:17;;;;;;;14.43;10.65;;;12.00;87.70;;;;;;5127429;28;20206;-84
2021/11/07 03:43:44;;;;;;;15.68;11.35;;;12.10;87.70;;;;;;5139787;28;20195;-84
2021/11/07 03:46:10;;;;;;;17.30;11.80;;;12.00;87.60;;;;;;5133506;28;20662;-84
2021/11/07 03:48:36;;;;;;;16.35;11.60;;;12.00;87.80;;;;;;5140382;27;20187;-84
2021/11/07 03:51:04;;;;;;;16.57;11.60;;;12.00;87.80;;;;;;5129681;28;20186;-84
2021/11/07 03:53:30;;;;;;;18.80;11.38;;;12.00;88.00;;;;;;5125160;28;20634;-84
2021/11/07 03:55:56;;;;;;;18.50;11.57;;;12.00;88.00;;;;;;5126863;27;20252;-84
2021/11/07 03:58:21;;;;;;;29.03;12.50;;;12.00;88.20;;;;;;5127638;28;20171;-84
2021/11/07 04:00:47;;;;;;;17.57;11.60;;;12.00;88.40;;;;;;5122728;28;20223;-84
2021/11/07 04:03:13;;;;;;;16.03;12.70;;;12.10;88.30;;;;;;5104861;28;20531;-84
2021/11/07 04:05:39;;;;;;;22.80;12.57;;;12.00;88.30;;;;;;5099166;28;20267;-84
2021/11/07 04:08:06;;;;;;;20.97;11.63;;;12.20;88.30;;;;;;5098507;28;20413;-84
2021/11/07 04:10:34;;;;;;;16.02;10.13;;;12.30;88.10;;;;;;5096528;28;20447;-84
2021/11/07 04:13:01;;;;;;;19.30;12.50;;;12.20;87.90;;;;;;5106339;28;20202;-85
2021/11/07 04:15:27;;;;;;;20.75;12.82;;;12.20;87.90;;;;;;5116500;28;20202;-84
2021/11/07 04:17:52;;;;;;;19.30;13.60;;;12.10;88.20;;;;;;5116590;28;20183;-84
2021/11/07 04:20:18;;;;;;;20.63;14.20;;;12.20;88.20;;;;;;5116992;28;20453;-85
2021/11/07 04:22:46;;;;;;;20.30;11.98;;;12.20;88.20;;;;;;5117981;28;20431;-84
2021/11/07 04:25:13;;;;;;;24.38;12.52;;;12.20;88.10;;;;;;5118837;28;20205;-84
2021/11/07 04:27:39;;;;;;;40.00;13.77;;;12.10;88.40;;;;;;5124701;28;20183;-84
2021/11/07 04:30:06;;;;;;;23.63;12.30;;;12.20;88.40;;;;;;5125840;28;20217;-85
2021/11/07 04:32:33;;;;;;;21.48;13.10;;;12.10;88.40;;;;;;5127800;28;20438;-84
2021/11/07 04:34:58;;;;;;;17.83;11.88;;;12.20;88.50;;;;;;5134454;28;20203;-84
2021/11/07 04:37:24;;;;;;;19.57;12.03;;;12.10;88.70;;;;;;5134184;28;20206;-84
2021/11/07 04:39:50;;;;;;;19.73;12.67;;;12.20;88.70;;;;;;5118427;28;20456;-84
2021/11/07 04:42:16;;;;;;;18.88;12.07;;;12.30;88.80;;;;;;5117886;28;20421;-84
2021/11/07 04:44:42;;;;;;;18.48;12.20;;;12.20;88.70;;;;;;5116859;28;20233;-84
2021/11/07 04:47:08;;;;;;;15.40;11.43;;;12.20;88.80;;;;;;5101824;28;20578;-84
2021/11/07 04:49:34;;;;;;;20.60;11.50;;;12.30;88.80;;;;;;5116544;28;20324;-84
2021/11/07 04:52:00;;;;;;;24.37;12.47;;;12.30;88.70;;;;;;5116252;28;20427;-84
2021/11/07 04:54:27;;;;;;;24.17;11.30;;;12.30;88.70;;;;;;5116979;28;20486;-84
2021/11/07 04:56:53;;;;;;;19.30;12.90;;;12.30;88.80;;;;;;5116621;28;20668;-84
2021/11/07 04:59:19;;;;;;;20.73;12.43;;;12.50;88.60;;;;;;5115863;28;20180;-84
2021/11/07 05:01:45;;;;;;;15.98;12.13;;;12.50;88.40;;;;;;5113265;28;20220;-84
2021/11/07 05:04:11;;;;;;;16.80;11.97;;;12.30;88.50;;;;;;5094802;28;20199;-84
2021/11/07 05:06:37;;;;;;;22.85;11.57;;;12.20;88.70;;;;;;5095386;28;20414;-84
2021/11/07 05:09:04;;;;;;;21.47;12.97;;;12.20;89.10;;;;;;5095341;28;20182;-84
2021/11/07 05:11:31;;;;;;;18.42;13.10;;;12.00;89.50;;;;;;5095387;28;20191;-84
2021/11/07 05:13:57;;;;;;;20.10;14.73;;;12.10;90.10;;;;;;5112957;28;20716;-83
2021/11/07 05:16:22;;;;;;;21.03;14.50;;;12.20;89.90;;;;;;5115914;28;20178;-84
2021/11/07 05:18:49;;;;;;;22.13;13.70;;;12.10;90.10;;;;;;5115906;28;20614;-84
2021/11/07 05:21:15;;;;;;;28.38;16.00;;;12.20;90.10;;;;;;5115475;28;20826;-84
2021/11/07 05:23:41;;;;;;;32.88;15.45;;;12.20;90.00;;;;;;5116331;28;20191;-85
2021/11/07 05:26:07;;;;;;;26.57;14.53;;;12.10;89.80;;;;;;5116197;28;20174;-84
2021/11/07 05:28:34;;;;;;;27.67;13.93;;;12.20;89.80;;;;;;5116226;28;20246;-85
2021/11/07 05:31:00;;;;;;;21.35;13.80;;;12.30;89.70;;;;;;5115635;28;20782;-85
2021/11/07 05:33:26;;;;;;;20.52;13.43;;;12.30;89.50;;;;;;5114512;28;20205;-85
2021/11/07 05:35:52;;;;;;;27.48;14.50;;;12.40;89.40;;;;;;5115197;28;20198;-84
2021/11/07 05:38:19;;;;;;;31.02;13.63;;;12.40;89.10;;;;;;5114007;28;20179;-85
2021/11/07 05:40:45;;;;;;;23.05;13.75;;;12.40;89.00;;;;;;5094599;28;20200;-85
2021/11/07 05:43:11;;;;;;;30.23;14.55;;;12.40;88.80;;;;;;5093989;28;20594;-85
2021/11/07 05:45:37;;;;;;;32.40;14.40;;;12.50;88.80;;;;;;5095920;28;20180;-84
2021/11/07 05:48:05;;;;;;;28.50;15.15;;;12.50;88.50;;;;;;5097694;28;20413;-85
2021/11/07 05:50:31;;;;;;;30.20;13.38;;;12.40;88.20;;;;;;5097950;28;20308;-85
2021/11/07 05:52:56;;;;;;;25.93;15.20;;;12.40;88.10;;;;;;5096489;28;20647;-85
2021/11/07 05:55:22;;;;;;;36.13;13.20;;;12.40;87.80;;;;;;5098017;28;20195;-85
2021/11/07 05:57:48;;;;;;;35.87;13.10;;;12.30;87.60;;;;;;5099377;28;20549;-85
2021/11/07 06:00:15;;;;;;;33.57;10.70;;;12.30;87.30;;;;;;5096795;28;20195;-85
2021/11/07 06:02:41;;;;;;;26.15;9.70;;;12.30;87.80;;;;;;5097382;28;20171;-84
2021/11/07 06:05:08;;;;;;;21.80;8.38;;;12.30;86.70;;;;;;5096971;28;20196;-85
2021/11/07 06:07:33;;;;;;;14.90;6.38;;;12.20;86.90;;;;;;5095543;28;20167;-84
2021/11/07 06:09:59;;;;;;;22.40;6.70;;;12.20;86.50;;;;;;5094238;28;20182;-84
2021/11/07 06:12:25;;;;;;;11.67;6.40;;;12.30;85.40;;;;;;5101009;28;20420;-84
2021/11/07 06:14:51;;;;;;;24.97;5.60;;;12.20;84.70;;;;;;5114884;28;20203;-84
2021/11/07 06:17:17;;;;;;;20.93;6.80;;;12.20;84.00;;;;;;5114714;28;20405;-84
2021/11/07 06:19:42;;;;;;;13.33;4.57;;;12.20;83.10;;;;;;5115000;28;20663;-84
2021/11/07 06:22:08;;;;;;;22.07;5.20;;;12.20;82.30;;;;;;5115068;28;20417;-84
2021/11/07 06:24:34;;;;;;;10.23;4.27;;;12.20;81.60;;;;;;5115506;28;20179;-84
2021/11/07 06:27:01;;;;;;;23.33;6.20;;;12.20;80.80;;;;;;5116060;28;20412;-84
2021/11/07 06:29:27;;;;;;;14.25;4.22;;;12.40;81.30;;;;;;5116158;28;20171;-84
2021/11/07 06:31:55;;;;;;;13.88;4.50;;;12.30;80.20;;;;;;5116706;28;20171;-84
2021/11/07 06:34:22;;;;;;;8.80;3.17;;;12.30;80.10;;;;;;5115391;27;20292;-84
2021/11/07 06:36:49;;;;;;;17.75;3.72;;;12.40;79.90;;;;;;5115158;28;20183;-84
2021/11/07 06:39:16;;;;;;;13.30;4.25;;;12.40;79.60;;;;;;5123152;28;20176;-83
2021/11/07 06:41:44;;;;;;;15.82;3.50;;;12.30;79.20;;;;;;5100694;28;20277;-84
2021/11/07 06:44:11;;;;;;;4.97;3.30;;;12.30;79.20;;;;;;5095031;28;20568;-84
2021/11/07 06:46:37;;;;;;;13.95;3.83;;;12.30;79.10;;;;;;5095704;28;20682;-84
2021/11/07 06:49:09;;;;;;;18.40;3.42;;;12.10;78.70;;;;;;5094637;28;20172;-84
2021/11/07 06:51:35;;;;;;;11.57;4.05;;;12.10;78.70;;;;;;5094682;28;20540;-84
2021/11/07 06:54:01;;;;;;;9.88;3.55;;;12.10;78.80;;;;;;5093515;28;20204;-84
2021/11/07 06:56:27;;;;;;;9.10;4.35;;;11.90;78.40;;;;;;5096015;28;20184;-84
2021/11/07 06:58:56;;;;;;;11.50;3.93;;;11.90;78.40;;;;;;5095688;28;20275;-84
2021/11/07 07:01:22;;;;;;;10.27;3.42;;;11.90;78.20;;;;;;5102252;28;20797;-84
2021/11/07 07:03:48;;;;;;;11.57;2.90;;;11.90;77.90;;;;;;5103580;28;20196;-84
2021/11/07 07:06:14;;;;;;;8.57;3.27;;;11.80;78.00;;;;;;5100447;28;20237;-84
2021/11/07 07:08:50;;;;;;;18.83;3.70;;;11.90;78.10;;;;;;5100008;28;20486;-84
2021/11/07 07:11:24;;;;;;;14.60;2.95;;;11.70;77.70;;;;;;5105511;28;20174;-84
2021/11/07 07:14:13;;;;;;;16.02;3.38;;;11.70;77.70;;;;;;5119677;28;20211;-84
2021/11/07 07:16:43;;;;;;;9.85;3.50;;;11.80;77.50;;;;;;5127247;28;20179;-85
2021/11/07 07:29:49;;;;;;;13.85;3.20;;;11.80;77.40;;;;;;5097573;28;20400;-84
2021/11/07 07:35:01;;;;;;;10.55;3.25;;;11.80;77.30;;;;;;5133110;28;20197;-85
2021/11/07 07:37:27;;;;;;;15.60;5.32;;;11.90;77.30;;;;;;5133860;28;20175;-85
2021/11/07 07:39:53;;;;;;;20.27;6.03;;;11.80;77.10;;;;;;5123770;28;20190;-84
2021/11/07 07:42:19;;;;;;;16.83;4.50;;;11.90;77.10;;;;;;5116686;28;20184;-84
2021/11/07 07:44:48;;;;;;;9.40;3.50;;;12.10;76.90;;;;;;5113585;28;20219;-85
2021/11/07 07:47:14;;;;;;;10.95;3.75;;;12.20;76.50;;;;;;5110481;28;20191;-84
2021/11/07 07:49:41;;;;;;;15.65;3.80;;;12.30;76.10;;;;;;5103758;28;20258;-84
2021/11/07 07:52:07;;;;;;;14.63;3.92;;;12.30;75.90;;;;;;5101819;28;20213;-85
2021/11/07 07:54:33;;;;;;;13.83;5.23;;;12.40;75.40;;;;;;5099459;28;20191;-85
2021/11/07 07:56:58;;;;;;;11.97;3.60;;;12.50;75.00;;;;;;5102080;28;20414;-85
2021/11/07 07:59:25;;;;;;;14.63;3.17;;;12.60;74.70;;;;;;5102258;28;20188;-85
2021/11/07 08:01:52;;;;;;;9.18;3.08;;;12.60;74.10;;;;;;5099108;28;20195;-85
2021/11/07 08:04:18;;;;;;;10.82;3.45;;;12.50;73.70;;;;;;5097379;28;20617;-85
2021/11/07 08:06:44;;;;;;;9.80;3.63;;;12.40;73.50;;;;;;5098112;28;20179;-85
2021/11/07 08:09:10;;;;;;;7.17;2.67;;;12.40;73.50;;;;;;5097727;28;20548;-85
2021/11/07 08:11:38;;;;;;;12.23;3.73;;;12.40;73.30;;;;;;5097919;28;20179;-84
2021/11/07 08:14:04;;;;;;;14.25;3.13;;;12.30;73.30;;;;;;5099492;28;20693;-85
2021/11/07 08:16:31;;;;;;;15.57;3.72;;;12.30;73.20;;;;;;5117656;28;20199;-85
2021/11/07 08:18:57;;;;;;;10.32;2.75;;;12.40;73.10;;;;;;5117790;28;20274;-84
2021/11/07 08:21:25;;;;;;;16.00;3.50;;;12.30;73.00;;;;;;5117681;28;20233;-85
2021/11/07 08:23:53;;;;;;;12.85;3.08;;;12.30;72.60;;;;;;5117510;28;20661;-85
2021/11/07 08:26:20;;;;;;;8.25;2.65;;;12.40;72.80;;;;;;5116709;28;20190;-85
2021/11/07 08:28:47;;;;;;;17.23;3.40;;;12.50;72.20;;;;;;5116812;28;20174;-85
2021/11/07 08:31:21;;;;;;;18.35;4.35;;;12.50;71.50;;;;;;5116816;28;20234;-85
2021/11/07 08:33:48;;;;;;;7.85;2.80;;;12.60;71.40;;;;;;5117111;28;20191;-84
2021/11/07 08:36:20;;;;;;;14.38;3.47;;;12.60;71.00;;;;;;5118373;28;20601;-84
2021/11/07 08:38:51;;;;;;;17.10;3.53;;;12.60;70.90;;;;;;5119489;28;20233;-82
2021/11/07 08:41:18;;;;;;;12.85;3.38;;;12.60;70.40;;;;;;5120750;28;20210;-82
2021/11/07 09:05:33;;;;;;;10.43;3.17;;;12.60;68.60;;;;;;5121525;28;20208;-82
2021/11/07 09:10:33;;;;;;;13.65;3.08;;;12.90;68.60;;;;;;5124755;28;20179;-82
2021/11/07 09:13:06;;;;;;;14.52;5.15;;;12.80;67.80;;;;;;5109927;28;20196;-83
2021/11/07 09:15:34;;;;;;;9.10;2.70;;;12.90;68.10;;;;;;5095865;28;20175;-81
2021/11/07 09:18:00;;;;;;;20.35;4.40;;;13.00;66.80;;;;;;5097310;28;20179;-81
2021/11/07 09:20:44;;;;;;;21.40;3.83;;;12.90;66.80;;;;;;5098138;28;20207;-82
2021/11/07 09:28:20;;;;;;;15.57;3.70;;;12.90;66.60;;;;;;5099816;28;20176;-81
2021/11/07 09:30:57;;;;;;;14.30;3.25;;;12.90;66.70;;;;;;5099476;28;20168;-81
2021/11/07 09:33:36;;;;;;;18.98;3.03;;;12.80;66.80;;;;;;5098914;28;20232;-82
2021/11/07 09:38:33;;;;;;;24.33;3.90;;;12.90;67.10;;;;;;5101628;28;20241;-81
2021/11/07 09:44:20;;;;;;;13.82;2.78;;;12.80;66.70;;;;;;5103359;28;20285;-81
2021/11/07 09:49:00;;;;;;;16.58;3.33;;;12.80;66.10;;;;;;5104711;28;20180;-81
2021/11/07 09:51:33;;;;;;;18.45;3.13;;;12.70;66.10;;;;;;5102251;28;20179;-80
2021/11/07 09:53:59;;;;;;;14.30;3.67;;;12.90;66.10;;;;;;5111564;28;20227;-81
2021/11/07 09:56:25;;;;;;;9.98;2.92;;;13.10;66.50;;;;;;5097202;28;20180;-82
2021/11/07 09:58:54;;;;;;;19.85;3.67;;;13.20;65.00;;;;;;5096372;28;20251;-81
2021/11/07 10:01:21;;;;;;;14.60;3.45;;;13.20;64.80;;;;;;5098231;28;20563;-81
2021/11/07 10:03:48;;;;;;;20.40;4.65;;;13.40;64.90;;;;;;5096244;28;20206;-81
2021/11/07 10:06:51;;;;;;;14.90;4.13;;;13.60;64.40;;;;;;5097914;28;20184;-81
2021/11/07 10:09:37;;;;;;;18.17;3.67;;;13.70;63.40;;;;;;5085360;28;20187;-81
2021/11/07 10:15:04;;;;;;;14.55;3.72;;;13.60;63.20;;;;;;5066314;28;20208;-81
2021/11/07 10:17:41;;;;;;;9.38;2.50;;;13.40;63.40;;;;;;5103812;28;20172;-81
2021/11/07 10:22:46;;;;;;;9.52;2.67;;;13.60;62.00;;;;;;5099313;28;20577;-81
2021/11/07 10:25:31;;;;;;;6.18;2.58;;;13.70;61.40;;;;;;5099150;28;20184;-81
2021/11/07 10:27:58;;;;;;;12.43;3.17;;;13.80;60.90;;;;;;5099121;28;20156;-81
2021/11/07 10:30:26;;;;;;;11.55;2.65;;;13.70;60.80;;;;;;5098108;28;20590;-81
2021/11/07 10:36:09;;;;;;;18.60;3.78;;;13.80;59.70;;;;;;5098992;28;20207;-81
2021/11/07 10:44:28;;;;;;;12.25;2.72;;;13.50;61.30;;;;;;5099575;28;20199;-81
2021/11/07 10:52:28;;;;;;;16.80;3.30;;;13.90;59.90;;;;;;5100578;28;20622;-81
2021/11/07 10:54:54;;;;;;;10.07;2.60;;;13.80;59.90;;;;;;5107403;28;20196;-81
2021/11/07 10:57:24;;;;;;;11.85;3.15;;;13.90;60.00;;;;;;5107340;28;20421;-81
2021/11/07 11:00:14;;;;;;;7.25;2.15;;;13.60;59.90;;;;;;5106623;28;20187;-81
2021/11/07 11:02:45;;;;;;;13.15;3.00;;;13.40;60.60;;;;;;5104803;28;20634;-82
2021/11/07 11:05:25;;;;;;;17.20;3.05;;;13.20;61.20;;;;;;5105224;28;20199;-82
2021/11/07 11:07:55;;;;;;;20.17;3.60;;;13.10;61.70;;;;;;5105276;28;20176;-82
2021/11/07 11:10:26;;;;;;;12.80;2.90;;;13.30;61.90;;;;;;5105488;28;20179;-82
2021/11/07 11:13:12;;;;;;;20.67;4.53;;;13.10;62.20;;;;;;5113341;28;20220;-82
2021/11/07 11:15:45;;;;;;;14.68;3.03;;;13.10;62.60;;;;;;5116958;28;20207;-82
2021/11/07 11:24:23;;;;;;;16.17;3.40;;;13.20;62.50;;;;;;5078608;28;20223;-81
2021/11/07 11:37:43;;;;;;;11.25;2.72;;;13.40;62.10;;;;;;5085548;28;20172;-80
2021/11/07 11:40:17;;;;;;;13.00;3.05;;;13.70;62.30;;;;;;5082265;28;20203;-81
2021/11/07 11:42:59;;;;;;;12.27;2.95;;;13.60;61.70;;;;;;5104903;28;20164;-81
2021/11/07 11:45:31;;;;;;;13.05;3.15;;;13.50;61.90;;;;;;5105150;28;20192;-84
2021/11/07 11:49:03;;;;;;;16.70;3.72;;;13.40;62.70;;;;;;5106757;28;20187;-84
2021/11/07 11:51:52;;;;;;;14.43;4.10;;;13.50;62.00;;;;;;5110950;28;20180;-84
2021/11/07 12:02:24;;;;;;;14.80;3.00;;;13.90;61.20;;;;;;5091610;28;20156;-83
2021/11/07 12:05:03;;;;;;;21.63;3.80;;;14.00;61.10;;;;;;5089521;28;20283;-84
2021/11/07 12:07:35;;;;;;;10.23;4.00;;;13.80;61.20;;;;;;5087696;28;20176;-83
2021/11/07 12:10:12;;;;;;;13.55;3.58;;;13.80;61.30;;;;;;5102256;28;20188;-83
2021/11/07 12:12:49;;;;;;;12.35;3.90;;;13.60;61.40;;;;;;5095711;28;20183;-84
2021/11/07 12:15:27;;;;;;;14.07;3.63;;;13.70;62.00;;;;;;5104967;28;20686;-84
2021/11/07 12:18:10;;;;;;;14.52;3.42;;;13.60;61.90;;;;;;5098058;28;20175;-84
2021/11/07 12:20:39;;;;;;;12.00;3.40;;;13.70;62.00;;;;;;5097952;28;20222;-83
2021/11/07 12:23:18;;;;;;;17.95;4.35;;;13.60;61.90;;;;;;5082258;28;20168;-83
2021/11/07 12:25:45;;;;;;;14.15;3.55;;;13.60;62.20;;;;;;5084129;28;20183;-83
2021/11/07 12:28:12;;;;;;;14.40;4.15;;;13.60;62.10;;;;;;5084010;28;20535;-83
2021/11/07 12:30:40;;;;;;;12.40;3.33;;;13.60;62.50;;;;;;5072569;28;20279;-83
2021/11/07 12:33:22;;;;;;;22.42;4.25;;;13.40;62.70;;;;;;5118624;28;20191;-83
2021/11/07 12:41:23;;;;;;;17.73;3.58;;;13.30;63.70;;;;;;5103276;28;20226;-83
2021/11/07 12:44:25;;;;;;;13.90;4.10;;;13.30;63.90;;;;;;5093175;28;20192;-83
2021/11/07 12:49:26;;;;;;;15.57;3.83;;;13.30;64.10;;;;;;5096295;28;20176;-85
2021/11/07 12:51:56;;;;;;;19.35;4.68;;;13.30;64.20;;;;;;5099660;28;20206;-84
2021/11/07 12:54:25;;;;;;;14.25;3.53;;;13.30;64.40;;;;;;5099397;28;20267;-84
2021/11/07 12:57:00;;;;;;;18.70;4.88;;;13.30;64.30;;;;;;5101673;28;20195;-84
2021/11/07 12:59:34;;;;;;;14.13;4.43;;;13.20;64.10;;;;;;5099326;28;20259;-85
2021/11/07 13:02:18;;;;;;;18.38;4.05;;;13.00;64.30;;;;;;5096525;28;20306;-85
2021/11/07 13:04:59;;;;;;;14.20;2.97;;;13.00;64.20;;;;;;5077550;28;20215;-84
2021/11/07 13:07:34;;;;;;;18.98;4.13;;;13.10;64.30;;;;;;5081772;28;20168;-83
2021/11/07 13:10:07;;;;;;;22.63;3.70;;;13.10;63.80;;;;;;5079953;28;20176;-84
2021/11/07 13:12:43;;;;;;;21.85;4.70;;;12.90;63.50;;;;;;5091575;28;20187;-86
2021/11/07 13:21:08;;;;;;;16.42;3.20;;;13.00;62.30;;;;;;5100845;28;20258;-84
2021/11/07 13:31:16;;;;;;;17.63;3.47;;;12.80;60.10;;;;;;5100630;28;20171;-83
2021/11/07 13:33:44;;;;;;;14.23;3.97;;;12.90;60.90;;;;;;5079111;28;20526;-84
2021/11/07 13:36:14;;;;;;;14.18;3.47;;;12.90;60.90;;;;;;5064000;28;20188;-84
2021/11/07 13:38:50;;;;;;;13.75;3.70;;;13.00;61.30;;;;;;5079360;28;20180;-84
2021/11/07 13:41:22;;;;;;;13.98;4.63;;;12.90;62.10;;;;;;5082823;28;20208;-84
2021/11/07 13:44:03;;;;;;;27.35;3.92;;;12.70;63.30;;;;;;5097585;28;20737;-85
2021/11/07 13:46:29;;;;;;;8.90;3.38;;;12.70;63.70;;;;;;5079121;28;20169;-85
2021/11/07 13:49:02;;;;;;;31.23;4.22;;;12.70;64.00;;;;;;5084639;28;20171;-85
2021/11/07 13:51:33;;;;;;;11.43;4.40;;;12.60;64.10;;;;;;5103018;28;20173;-84
2021/11/07 13:54:03;;;;;;;17.38;3.78;;;12.60;64.40;;;;;;5093615;28;20273;-83
2021/11/07 13:56:31;;;;;;;16.27;5.88;;;12.50;64.60;;;;;;5088608;28;20184;-85
2021/11/07 13:58:57;;;;;;;13.52;4.68;;;12.40;64.80;;;;;;5081078;28;20181;-85
2021/11/07 14:01:23;;;;;;;13.60;3.50;;;12.40;64.90;;;;;;5092904;28;20200;-84
2021/11/07 14:03:56;;;;;;;8.23;3.20;;;12.30;65.20;;;;;;5093207;28;20188;-84
2021/11/07 14:06:38;;;;;;;18.13;4.65;;;12.30;65.20;;;;;;5092731;28;20432;-84
2021/11/07 14:09:05;;;;;;;18.05;2.83;;;12.40;65.10;;;;;;5100647;28;20249;-84
2021/11/07 14:11:35;;;;;;;17.27;4.35;;;12.50;64.80;;;;;;5100380;28;20179;-84
2021/11/07 14:14:07;;;;;;;11.13;3.67;;;12.50;64.70;;;;;;5120513;28;20219;-85
2021/11/07 14:16:47;;;;;;;17.63;3.92;;;12.60;64.00;;;;;;5105087;28;20172;-85
2021/11/07 14:19:14;;;;;;;14.00;4.47;;;12.60;63.60;;;;;;5083274;28;20176;-84
2021/11/07 14:21:42;;;;;;;11.02;3.85;;;12.60;63.30;;;;;;5082852;28;20218;-85
2021/11/07 14:24:22;;;;;;;12.48;3.70;;;12.70;63.00;;;;;;5093376;28;20246;-84
2021/11/07 14:26:59;;;;;;;15.50;3.03;;;12.70;62.60;;;;;;5096798;28;20172;-85
2021/11/07 14:32:23;;;;;;;27.67;5.95;;;12.70;63.20;;;;;;5107914;28;20313;-85
2021/11/07 14:35:20;;;;;;;27.33;4.45;;;12.70;63.20;;;;;;5105743;28;20200;-84
2021/11/07 14:37:57;;;;;;;19.73;5.18;;;12.70;63.30;;;;;;5103537;28;20207;-84
2021/11/07 14:59:22;;;;;;;16.48;4.00;;;12.80;62.80;;;;;;5090594;28;20666;-86
2021/11/07 15:01:58;;;;;;;10.32;3.80;;;12.60;63.10;;;;;;5092971;28;20199;-86
2021/11/07 15:04:41;;;;;;;13.93;4.78;;;12.80;63.30;;;;;;5089549;28;20202;-86
2021/11/07 15:07:17;;;;;;;11.35;3.80;;;12.80;63.50;;;;;;5097231;28;20164;-86
2021/11/07 15:09:57;;;;;;;13.40;3.85;;;12.80;63.60;;;;;;5092541;28;20191;-83
2021/11/07 15:22:59;;;;;;;16.15;4.20;;;12.80;64.00;;;;;;5097177;28;20180;-84
2021/11/07 15:25:33;;;;;;;34.67;4.75;;;12.80;63.80;;;;;;5099664;28;20200;-82
2021/11/07 15:28:06;;;;;;;18.65;4.53;;;12.60;64.20;;;;;;5099543;28;20251;-83
2021/11/07 15:30:36;;;;;;;10.07;4.13;;;12.50;64.50;;;;;;5099755;28;20172;-82
2021/11/07 15:33:16;;;;;;;15.13;5.32;;;12.60;64.70;;;;;;5104689;28;20233;-84
2021/11/07 15:35:54;;;;;;;17.35;5.40;;;12.60;64.70;;;;;;5092471;28;20715;-83
2021/11/07 15:38:25;;;;;;;12.10;4.03;;;12.60;64.90;;;;;;5070756;28;20188;-83
2021/11/07 15:41:06;;;;;;;22.63;4.85;;;12.50;65.20;;;;;;5091822;28;20667;-87
2021/11/07 15:43:32;;;;;;;17.15;4.20;;;12.60;65.40;;;;;;5090711;28;20199;-84
2021/11/07 15:46:09;;;;;;;21.58;4.78;;;12.40;65.20;;;;;;5089865;28;20177;-84